Preston Hollow, NY (12469)

6:39 PM EDT on October 01, 2016 (GMT -0400)
East Hill | | Change Station

Elev 2037 ft 42.55 °N, 74.24 °W | Updated 14 minutes ago

Overcast
Overcast
50.9 °F
Feels Like 50.9 °F
N
1.7
Wind Variable Wind from SSW

Today
High -- | Low -- °F
--% Chance of Precip.
Yesterday
High -- | Low -- °F
Precip. -- in
Pressure 30.21 in
Visibility 10.0 miles
Clouds Mostly Cloudy 2100 ft
Overcast 2600 ft
Dew Point 50 °F
Humidity 95%
Rainfall 0.07 in
Snow Depth Not available.
6:54 AM 6:37 PM
New Moon, 1% visible
METAR KALB 012151Z 23004KT 10SM BKN021 OVC026 15/12 A3020 RMK AO2 SLP229 T01500117
Pressure 30.21 in
Visibility 10.0 miles
Clouds Mostly Cloudy 2100 ft
Overcast 2600 ft
Dew Point 50 °F
Humidity 95%
Rainfall 0.07 in
Snow Depth Not available.
6:54 AM 6:37 PM
New Moon, 1% visible
METAR KALB 012151Z 23004KT 10SM BKN021 OVC026 15/12 A3020 RMK AO2 SLP229 T01500117

10-Day Weather Forecast

Almanac

Astronomy

Oct. 01, 2016 Rise Set
Actual Time
Civil Twilight
Nautical Twilight
Astronomical Twilight
Moon
Length of Visible Light
Length of Day
Tomorrow will be .
, % of the Moon is Illuminated

Today's Extremes

State Highs State Lows

Community

WunderPhotos

Upload Photos

1,943,041 photos uploaded!

WunderBlog® & News

Nearby

Air Quality

  Air Quality AQ Index Pollutant
Not available.

Snow Depth

Station Depth Elevation

Earthquake Activity

City Distance Mag. Time & Date
Minimum magnitude displayed is 2.5.

Coastal Water Temperatures

Place Temperature

Stations

Nearby Weather Stations

Station Location Temp. Windchill Dew Point Humidity Wind Precip. Elev Updated Type
                   

Watches & Warnings

There are currently no watches in effect.